KOLY/OLY METAR and TAF weather

Enter ICAO airport designator
Station Type Date Time Source
KOLY METAR 2024/05/28 22:50 UTC NOAA

KOLY 282250Z AUTO 31011G18KT 10SM SCT060 SCT080 25/10 A3003 RMK AO2 T02460103


Station Type Date Time Source
KOLY Decoded METAR 2024/05/28 22:50 UTC NOAA

Olney-Noble, Olney-Noble Airport, IL, United States (KOLY) 38-43-19N 088-10-35W
May 28, 2024 - 06:50 PM EDT / 2024.05.28 2250 UTC
Wind: from the NW (310 degrees) at 13 MPH (11 KT) gusting to 21 MPH (18 KT):0
Visibility: 10 mile(s):0
Sky conditions: partly cloudy
Temperature: 76.3 F (24.6 C)
Dew Point: 50.5 F (10.3 C)
Relative Humidity: 40%
Pressure (altimeter): 30.03 in. Hg (1016 hPa)
ob: KOLY 282250Z AUTO 31011G18KT 10SM SCT060 SCT080 25/10 A3003 RMK AO2 T02460103
cycle: 23

Station Type Date Time Source
KOLY TAF UTC NOAA

Error!

Example: see airport list